createdAt,value
2018-04-12T00:01:28.489Z,94.49
2018-04-12T00:04:31.001Z,94.98
2018-04-12T00:07:33.504Z,95.21
2018-04-12T00:10:36.031Z,95.19
2018-04-12T00:13:38.504Z,95.17
2018-04-12T00:16:41.001Z,95.04
2018-04-12T00:19:43.480Z,95.07
2018-04-12T00:22:45.989Z,95.13
2018-04-12T00:25:48.496Z,95.42
2018-04-12T00:28:50.996Z,94.85
2018-04-12T00:31:53.550Z,95.22
2018-04-12T00:34:56.136Z,94.98
2018-04-12T00:37:58.636Z,94.64
2018-04-12T00:41:01.111Z,94.81
2018-04-12T00:44:03.603Z,94.65
2018-04-12T00:47:06.054Z,94.32
2018-04-12T00:50:08.571Z,94.82
2018-04-12T00:53:11.086Z,94.78
2018-04-12T00:56:13.692Z,94.81
2018-04-12T00:59:16.243Z,94.99
2018-04-12T01:02:18.708Z,94.95
2018-04-12T01:05:21.212Z,94.99
2018-04-12T01:08:23.718Z,95.27
2018-04-12T01:11:26.233Z,95.62
2018-04-12T01:14:28.806Z,95.81
2018-04-12T01:17:31.271Z,95.92
2018-04-12T01:20:33.816Z,96.04
2018-04-12T01:23:36.328Z,96.13
2018-04-12T01:26:38.830Z,95.90
2018-04-12T01:29:41.346Z,96.15
2018-04-12T01:32:43.791Z,95.83
2018-04-12T01:35:46.281Z,95.97
2018-04-12T01:38:48.771Z,95.74
2018-04-12T01:41:51.257Z,95.57
2018-04-12T01:44:53.852Z,95.92
2018-04-12T01:47:56.361Z,95.59
2018-04-12T01:50:58.843Z,96.09
2018-04-12T01:54:01.302Z,96.32
2018-04-12T01:57:03.817Z,96.36
2018-04-12T02:00:06.293Z,96.17
2018-04-12T02:03:08.876Z,96.25
2018-04-12T02:06:11.366Z,96.20
2018-04-12T02:09:13.862Z,96.01
2018-04-12T02:12:16.509Z,95.94
2018-04-12T02:15:18.967Z,96.04
2018-04-12T02:18:21.465Z,96.29
2018-04-12T02:21:23.990Z,96.11
2018-04-12T02:24:26.464Z,96.01
2018-04-12T02:27:28.949Z,96.36
2018-04-12T02:30:31.484Z,96.46
2018-04-12T02:33:33.998Z,96.09
2018-04-12T02:36:36.477Z,96.02
2018-04-12T02:39:38.974Z,95.65
2018-04-12T02:42:41.497Z,95.74
2018-04-12T02:45:44.013Z,95.33
2018-04-12T02:48:46.463Z,95.29
2018-04-12T02:51:49.105Z,95.64
2018-04-12T02:54:51.641Z,95.75
2018-04-12T02:57:54.140Z,96.12
2018-04-12T03:00:56.620Z,95.92
2018-04-12T03:03:59.093Z,95.99
2018-04-12T03:07:01.594Z,96.09
2018-04-12T03:10:04.186Z,95.78
2018-04-12T03:13:06.740Z,96.17
2018-04-12T03:16:09.214Z,95.95
2018-04-12T03:19:11.765Z,95.83
2018-04-12T03:22:14.224Z,95.77
2018-04-12T03:25:16.760Z,95.43
2018-04-12T03:28:19.249Z,95.52
2018-04-12T03:31:21.753Z,95.12
2018-04-12T03:34:24.260Z,95.47
2018-04-12T03:37:26.748Z,95.38
2018-04-12T03:40:29.256Z,95.20
2018-04-12T03:43:31.864Z,95.42
2018-04-12T03:46:34.325Z,95.61
2018-04-12T03:49:36.870Z,95.26
2018-04-12T03:52:39.361Z,95.55
2018-04-12T03:55:41.876Z,95.38
2018-04-12T03:58:44.348Z,95.35
2018-04-12T04:01:46.918Z,95.47
2018-04-12T04:04:49.389Z,95.52
2018-04-12T04:07:51.931Z,95.40
2018-04-12T04:10:54.413Z,95.68
2018-04-12T04:13:56.879Z,95.64
2018-04-12T04:17:11.574Z,95.76
2018-04-12T04:20:26.049Z,95.97
2018-04-12T04:23:28.545Z,96.21
2018-04-12T04:26:31.023Z,96.26
2018-04-12T04:29:33.606Z,96.10
2018-04-12T04:32:36.110Z,95.93
2018-04-12T04:35:38.609Z,96.17
2018-04-12T04:38:41.040Z,96.28
2018-04-12T04:41:44.735Z,96.35
2018-04-12T04:44:47.276Z,96.71
2018-04-12T04:47:49.777Z,96.76
2018-04-12T04:50:52.309Z,96.48
2018-04-12T04:53:54.782Z,96.61
2018-04-12T04:56:57.261Z,96.63
2018-04-12T04:59:59.707Z,96.64
2018-04-12T05:03:02.172Z,96.78
2018-04-12T05:06:04.676Z,96.80
2018-04-12T05:09:07.187Z,96.75
2018-04-12T05:12:09.650Z,96.79
2018-04-12T05:15:12.116Z,96.88
2018-04-12T05:18:14.746Z,96.70
2018-04-12T05:21:17.181Z,96.94
2018-04-12T05:24:19.686Z,96.98
2018-04-12T05:27:22.160Z,97.16
2018-04-12T05:30:24.654Z,97.06
2018-04-12T05:33:27.116Z,97.20
2018-04-12T05:36:29.648Z,97.20
2018-04-12T05:39:32.108Z,97.41
2018-04-12T05:42:34.621Z,97.59
2018-04-12T05:45:37.157Z,97.79
2018-04-12T05:48:39.689Z,97.67
2018-04-12T05:51:42.150Z,97.65
2018-04-12T05:54:44.645Z,98.20
2018-04-12T05:57:47.095Z,98.24
2018-04-12T06:00:49.628Z,98.21
2018-04-12T06:03:52.085Z,98.14
2018-04-12T06:06:54.587Z,98.18
2018-04-12T06:09:57.060Z,98.38
2018-04-12T06:12:59.596Z,98.29
2018-04-12T06:16:02.091Z,98.00
2018-04-12T06:19:04.599Z,98.14
2018-04-12T06:22:07.069Z,98.70
2018-04-12T06:25:09.533Z,98.75
2018-04-12T06:28:12.008Z,98.52
2018-04-12T06:31:14.533Z,98.49
2018-04-12T06:34:17.022Z,98.62
2018-04-12T06:37:19.531Z,98.51
2018-04-12T06:40:22.107Z,98.38
2018-04-12T06:43:24.662Z,98.15
2018-04-12T06:46:27.170Z,98.10
2018-04-12T06:49:29.687Z,98.00
2018-04-12T06:52:32.246Z,98.16
2018-04-12T06:55:34.769Z,97.62
2018-04-12T06:58:37.289Z,97.78
2018-04-12T07:01:39.759Z,98.03
2018-04-12T07:04:42.252Z,97.93
2018-04-12T07:07:44.743Z,98.23
2018-04-12T07:10:47.223Z,98.10
2018-04-12T07:13:49.699Z,98.10
2018-04-12T07:16:52.235Z,97.79
2018-04-12T07:19:54.787Z,98.06
2018-04-12T07:22:57.290Z,98.19
2018-04-12T07:25:59.806Z,98.55
2018-04-12T07:29:02.279Z,98.46
2018-04-12T07:32:04.848Z,98.13
2018-04-12T07:35:07.388Z,97.98
2018-04-12T07:38:09.845Z,97.62
2018-04-12T07:41:12.370Z,97.90
2018-04-12T07:44:14.844Z,97.56
2018-04-12T07:47:17.382Z,97.62
2018-04-12T07:50:19.821Z,97.17
2018-04-12T07:53:22.360Z,96.87
2018-04-12T07:56:24.936Z,96.21
2018-04-12T07:59:27.384Z,96.16
2018-04-12T08:02:29.899Z,96.18
2018-04-12T08:05:32.474Z,95.62
2018-04-12T08:08:34.971Z,96.00
2018-04-12T08:11:37.481Z,95.71
2018-04-12T08:14:39.956Z,96.10
2018-04-12T08:20:51.306Z,96.07
2018-04-12T08:23:53.945Z,95.97
2018-04-12T08:26:56.443Z,96.03
2018-04-12T08:29:58.937Z,95.94
2018-04-12T08:33:01.406Z,96.55
2018-04-12T08:36:03.910Z,96.54
2018-04-12T08:39:06.453Z,96.49
2018-04-12T08:42:08.993Z,96.25
2018-04-12T08:45:11.472Z,96.49
2018-04-12T08:48:13.968Z,96.33
2018-04-12T08:51:16.511Z,96.33
2018-04-12T08:54:18.992Z,96.28
2018-04-12T08:57:21.499Z,96.13
2018-04-12T09:00:23.958Z,95.34
2018-04-12T09:03:26.497Z,95.25
2018-04-12T09:06:29.067Z,94.91
2018-04-12T09:09:31.587Z,95.00
2018-04-12T09:12:34.073Z,94.85
2018-04-12T09:15:36.605Z,94.66
2018-04-12T09:18:39.098Z,93.83
2018-04-12T09:21:41.613Z,93.51
2018-04-12T09:24:44.134Z,93.53
2018-04-12T09:27:46.635Z,93.33
2018-04-12T09:30:49.676Z,93.24
2018-04-12T09:33:52.152Z,94.20
2018-04-12T09:36:54.680Z,92.63
2018-04-12T09:39:57.199Z,93.28
2018-04-12T09:42:59.698Z,93.08
2018-04-12T09:46:02.180Z,92.08
2018-04-12T09:49:04.712Z,91.56
2018-04-12T09:52:07.206Z,92.39
2018-04-12T09:55:09.716Z,92.31
2018-04-12T09:58:12.210Z,92.08
2018-04-12T10:01:15.460Z,92.22
2018-04-12T10:04:17.924Z,92.11
2018-04-12T10:07:20.445Z,92.29
2018-04-12T10:10:22.954Z,92.59
2018-04-12T10:13:25.465Z,92.47
2018-04-12T10:16:27.953Z,92.30
2018-04-12T10:19:30.509Z,92.09
2018-04-12T10:22:32.989Z,91.64
2018-04-12T10:25:35.650Z,91.57
2018-04-12T10:28:38.159Z,90.96
2018-04-12T10:31:40.690Z,91.35
2018-04-12T10:34:43.205Z,91.27
2018-04-12T10:37:45.709Z,90.91
2018-04-12T10:40:48.208Z,90.22
2018-04-12T10:43:50.695Z,90.17
2018-04-12T10:46:53.189Z,90.12
2018-04-12T10:49:55.682Z,90.63
2018-04-12T10:52:58.298Z,90.59
2018-04-12T10:56:00.840Z,90.53
2018-04-12T10:59:03.320Z,90.91
2018-04-12T11:02:05.865Z,90.98
2018-04-12T11:05:08.442Z,90.60
2018-04-12T11:08:10.963Z,90.49
2018-04-12T11:11:13.467Z,90.29
2018-04-12T11:14:16.006Z,90.02
2018-04-12T11:17:18.461Z,89.94
2018-04-12T11:20:20.928Z,89.72
2018-04-12T11:23:23.539Z,89.56
2018-04-12T11:26:26.003Z,89.66
2018-04-12T11:29:28.493Z,89.13
2018-04-12T11:32:31.007Z,88.34
2018-04-12T11:35:33.554Z,87.80
2018-04-12T11:38:36.078Z,87.07
2018-04-12T11:41:38.549Z,87.25
2018-04-12T11:44:41.054Z,86.97
2018-04-12T11:47:43.589Z,87.50
2018-04-12T11:50:46.041Z,87.23
2018-04-12T11:53:48.549Z,86.64
2018-04-12T11:56:51.019Z,85.39
2018-04-12T11:59:53.521Z,84.47
2018-04-12T12:02:55.993Z,84.63
2018-04-12T12:05:58.509Z,83.74
2018-04-12T12:09:00.992Z,82.53
2018-04-12T12:12:03.525Z,82.25
2018-04-12T12:15:06.020Z,81.54
2018-04-12T12:18:08.592Z,81.81
2018-04-12T12:21:11.115Z,81.71
2018-04-12T12:24:13.625Z,80.08
2018-04-12T12:27:16.122Z,79.50
2018-04-12T12:30:18.600Z,79.02
2018-04-12T12:33:21.129Z,78.86
2018-04-12T12:36:23.669Z,77.23
2018-04-12T12:39:26.455Z,77.95
2018-04-12T12:42:28.944Z,79.08
2018-04-12T12:45:31.479Z,78.53
2018-04-12T12:48:33.976Z,77.75
2018-04-12T12:51:36.479Z,78.23
2018-04-12T12:54:38.978Z,78.47
2018-04-12T12:57:41.481Z,76.30
2018-04-12T13:00:43.945Z,76.04
2018-04-12T13:03:46.463Z,76.04
2018-04-12T13:06:48.947Z,75.28
2018-04-12T13:09:51.579Z,73.44
2018-04-12T13:12:54.143Z,75.12
2018-04-12T13:15:56.666Z,75.07
2018-04-12T13:18:59.141Z,73.76
2018-04-12T13:22:01.725Z,73.44
2018-04-12T13:25:04.419Z,73.16
2018-04-12T13:28:06.928Z,72.26
2018-04-12T13:31:09.453Z,72.41
2018-04-12T13:34:11.969Z,70.98
2018-04-12T13:37:14.737Z,71.74
2018-04-12T13:40:17.304Z,72.32
2018-04-12T13:43:19.831Z,71.90
2018-04-12T13:46:22.408Z,71.32
2018-04-12T13:49:24.858Z,71.43
2018-04-12T13:52:27.381Z,70.07
2018-04-12T13:55:29.855Z,70.50
2018-04-12T13:58:32.449Z,69.78
2018-04-12T14:01:34.964Z,70.40
2018-04-12T14:04:37.457Z,70.05
2018-04-12T14:07:40.046Z,68.66
2018-04-12T14:10:42.543Z,70.45
2018-04-12T14:13:45.051Z,70.11
2018-04-12T14:16:47.582Z,70.58
2018-04-12T14:19:50.084Z,70.53
2018-04-12T14:22:52.605Z,69.14
2018-04-12T14:25:55.453Z,69.54
2018-04-12T14:28:58.020Z,69.23
2018-04-12T14:32:00.531Z,69.34
2018-04-12T14:35:03.105Z,68.41
2018-04-12T14:38:05.881Z,68.08
2018-04-12T14:41:08.553Z,67.60
2018-04-12T14:44:11.224Z,67.94
2018-04-12T14:47:13.726Z,67.70
2018-04-12T14:50:16.204Z,67.91
2018-04-12T14:53:18.812Z,68.39
2018-04-12T14:56:21.322Z,68.52
2018-04-12T14:59:23.835Z,67.97
2018-04-12T15:02:26.358Z,68.56
2018-04-12T15:05:28.864Z,68.04
2018-04-12T15:08:31.387Z,68.62
2018-04-12T15:11:33.928Z,68.96
2018-04-12T15:14:36.469Z,68.99
2018-04-12T15:17:39.045Z,68.71
2018-04-12T15:20:41.603Z,68.91
2018-04-12T15:23:44.102Z,69.81
2018-04-12T15:26:46.575Z,68.67
2018-04-12T15:29:49.107Z,69.09
2018-04-12T15:32:51.639Z,68.68
2018-04-12T15:35:54.111Z,68.84
2018-04-12T15:38:56.682Z,70.08
2018-04-12T15:41:59.205Z,69.93
2018-04-12T15:45:01.722Z,68.81
2018-04-12T15:48:04.196Z,69.36
2018-04-12T15:51:06.728Z,69.42
2018-04-12T15:54:09.205Z,70.08
2018-04-12T15:57:11.733Z,69.27
2018-04-12T16:00:14.378Z,70.18
2018-04-12T16:03:16.941Z,68.75
2018-04-12T16:06:19.440Z,68.97
2018-04-12T16:09:21.940Z,68.90
2018-04-12T16:12:24.516Z,68.50
2018-04-12T16:15:26.988Z,68.67
2018-04-12T16:18:29.553Z,69.40
2018-04-12T16:21:32.037Z,69.14
2018-04-12T16:24:34.615Z,67.35
2018-04-12T16:27:37.085Z,68.50
2018-04-12T16:30:39.655Z,68.47
2018-04-12T16:33:42.107Z,67.83
2018-04-12T16:36:44.645Z,68.20
2018-04-12T16:39:47.171Z,68.23
2018-04-12T16:42:49.645Z,68.50
2018-04-12T16:45:52.204Z,68.39
2018-04-12T16:48:54.766Z,68.37
2018-04-12T16:51:57.312Z,69.16
2018-04-12T16:54:59.767Z,69.60
2018-04-12T16:58:02.319Z,68.98
2018-04-12T17:01:04.896Z,69.63
2018-04-12T17:04:07.410Z,69.15
2018-04-12T17:07:09.938Z,69.29
2018-04-12T17:10:12.482Z,69.66
2018-04-12T17:13:15.023Z,69.73
2018-04-12T17:16:17.538Z,69.62
2018-04-12T17:19:20.049Z,69.85
2018-04-12T17:22:22.588Z,69.90
2018-04-12T17:25:25.158Z,70.07
2018-04-12T17:28:27.777Z,69.90
2018-04-12T17:31:30.342Z,70.03
2018-04-12T17:34:33.737Z,70.32
2018-04-12T17:37:36.240Z,70.80
2018-04-12T17:40:38.744Z,71.01
2018-04-12T17:43:41.222Z,71.23
2018-04-12T17:46:43.778Z,71.30
2018-04-12T17:49:46.333Z,72.19
2018-04-12T17:52:48.859Z,72.73
2018-04-12T17:55:51.465Z,73.09
2018-04-12T17:58:53.915Z,73.37
2018-04-12T18:01:56.480Z,73.89
2018-04-12T18:04:58.945Z,74.05
2018-04-12T18:08:01.505Z,74.53
2018-04-12T18:11:04.023Z,75.06
2018-04-12T18:14:06.528Z,74.86
2018-04-12T18:17:09.090Z,74.99
2018-04-12T18:20:11.665Z,75.12
2018-04-12T18:23:14.219Z,75.03
2018-04-12T18:26:16.846Z,75.14
2018-04-12T18:29:19.380Z,74.60
2018-04-12T18:32:21.904Z,74.98
2018-04-12T18:35:24.482Z,75.34
2018-04-12T18:38:26.985Z,75.60
2018-04-12T18:41:29.617Z,75.86
2018-04-12T18:44:32.210Z,76.04
2018-04-12T18:47:34.733Z,75.73
2018-04-12T18:50:37.221Z,75.75
2018-04-12T18:53:39.751Z,75.57
2018-04-12T18:56:42.412Z,75.55
2018-04-12T18:59:45.004Z,75.92
2018-04-12T19:02:47.554Z,76.17
2018-04-12T19:05:50.103Z,76.27
2018-04-12T19:08:52.785Z,76.12
2018-04-12T19:11:55.375Z,76.12
2018-04-12T19:14:57.999Z,75.99
2018-04-12T19:18:00.557Z,75.87
2018-04-12T19:21:03.111Z,76.18
2018-04-12T19:24:06.522Z,76.58
2018-04-12T19:27:09.161Z,76.28
2018-04-12T19:30:11.696Z,76.47
2018-04-12T19:33:14.191Z,76.82
2018-04-12T19:36:16.716Z,77.10
2018-04-12T19:42:28.012Z,78.16
2018-04-12T19:45:30.533Z,78.18
2018-04-12T19:48:33.047Z,78.37
2018-04-12T19:51:35.599Z,78.38
2018-04-12T19:54:38.090Z,79.00
2018-04-12T19:57:40.724Z,79.12
2018-04-12T20:00:43.283Z,79.33
2018-04-12T20:03:45.817Z,79.81
2018-04-12T20:06:48.323Z,79.98
2018-04-12T20:09:50.825Z,80.13
2018-04-12T20:12:53.537Z,80.36
2018-04-12T20:15:56.040Z,80.66
2018-04-12T20:18:58.556Z,80.81
2018-04-12T20:22:01.092Z,80.81
2018-04-12T20:25:03.605Z,80.79
2018-04-12T20:28:06.230Z,80.76
2018-04-12T20:31:08.694Z,80.75
2018-04-12T20:34:11.207Z,80.81
2018-04-12T20:37:13.732Z,80.77
2018-04-12T20:40:16.310Z,80.61
2018-04-12T20:43:18.864Z,80.62
2018-04-12T20:46:21.388Z,80.57
2018-04-12T20:49:23.990Z,80.59
2018-04-12T20:52:26.533Z,80.74
2018-04-12T20:55:29.006Z,80.81
2018-04-12T20:58:31.536Z,80.41
2018-04-12T21:01:34.049Z,80.59
2018-04-12T21:04:36.605Z,80.60
2018-04-12T21:07:39.075Z,80.65
2018-04-12T21:10:41.637Z,80.83
2018-04-12T21:13:44.143Z,80.98
2018-04-12T21:16:46.754Z,81.31
2018-04-12T21:19:49.239Z,80.99
2018-04-12T21:22:51.868Z,81.00
2018-04-12T21:25:54.441Z,80.80
2018-04-12T21:28:56.980Z,80.67
2018-04-12T21:31:59.521Z,80.50
2018-04-12T21:35:02.056Z,80.46
2018-04-12T21:38:04.540Z,80.44
2018-04-12T21:41:07.086Z,80.65
2018-04-12T21:44:09.596Z,80.65
2018-04-12T21:47:12.132Z,80.63
2018-04-12T21:50:14.660Z,80.85
2018-04-12T21:53:17.263Z,81.47
2018-04-12T21:56:19.745Z,82.20
2018-04-12T21:59:22.269Z,82.22
2018-04-12T22:02:24.774Z,82.45
2018-04-12T22:05:27.260Z,82.26
2018-04-12T22:08:29.798Z,82.43
2018-04-12T22:11:32.335Z,82.93
2018-04-12T22:14:34.806Z,83.53
2018-04-12T22:17:37.346Z,83.71
2018-04-12T22:20:39.950Z,83.87
2018-04-12T22:23:42.478Z,84.31
2018-04-12T22:26:44.954Z,84.80
2018-04-12T22:29:47.425Z,84.91
2018-04-12T22:32:49.955Z,85.03
2018-04-12T22:35:53.816Z,85.23
2018-04-12T22:38:56.351Z,85.85
2018-04-12T22:41:58.863Z,85.78
2018-04-12T22:45:01.341Z,85.92
2018-04-12T22:48:03.836Z,86.11
2018-04-12T22:51:06.338Z,86.22
2018-04-12T22:54:08.847Z,86.24
2018-04-12T22:57:11.330Z,86.08
2018-04-12T23:00:13.822Z,86.02
2018-04-12T23:03:16.337Z,85.84
2018-04-12T23:06:18.906Z,86.02
2018-04-12T23:09:21.465Z,84.61
2018-04-12T23:12:23.976Z,83.42
2018-04-12T23:15:26.462Z,83.33
2018-04-12T23:18:28.984Z,82.65
2018-04-12T23:21:31.482Z,81.45
2018-04-12T23:24:34.076Z,79.67
2018-04-12T23:27:36.576Z,80.63
2018-04-12T23:30:39.073Z,79.23
2018-04-12T23:33:41.566Z,74.96
2018-04-12T23:36:44.221Z,75.55
2018-04-12T23:39:46.787Z,75.28
2018-04-12T23:42:49.293Z,73.07
2018-04-12T23:45:51.753Z,75.12
2018-04-12T23:48:54.284Z,75.44
2018-04-12T23:51:56.777Z,78.39
2018-04-12T23:54:59.318Z,83.42
2018-04-12T23:58:01.857Z,85.75
